createdAt,value
2023-04-21T00:00:47.089Z,11.56
2023-04-21T00:05:53.193Z,11.59
2023-04-21T00:10:58.731Z,11.65
2023-04-21T00:16:05.369Z,11.73
2023-04-21T00:21:10.975Z,11.72
2023-04-21T00:26:16.714Z,11.74
2023-04-21T00:31:24.617Z,11.78
2023-04-21T00:36:30.006Z,11.75
2023-04-21T00:41:36.793Z,11.78
2023-04-21T00:46:44.210Z,11.83
2023-04-21T00:51:50.923Z,11.96
2023-04-21T00:57:02.362Z,12.13
2023-04-21T01:02:07.730Z,12.26
2023-04-21T01:07:13.644Z,12.43
2023-04-21T01:12:19.600Z,12.68
2023-04-21T01:17:25.149Z,12.83
2023-04-21T01:22:31.677Z,12.99
2023-04-21T01:27:37.514Z,13.23
2023-04-21T01:32:43.012Z,13.51
2023-04-21T01:37:48.968Z,13.64
2023-04-21T01:42:57.188Z,13.87
2023-04-21T01:48:02.710Z,14.01
2023-04-21T01:53:08.773Z,14.13
2023-04-21T01:58:14.227Z,14.26
2023-04-21T02:03:20.070Z,14.44
2023-04-21T02:08:25.693Z,14.67
2023-04-21T02:13:31.368Z,14.76
2023-04-21T02:18:41.252Z,14.82
2023-04-21T02:23:49.375Z,15.00
2023-04-21T02:28:56.059Z,14.98
2023-04-21T02:34:01.484Z,15.17
2023-04-21T02:39:07.550Z,15.37
2023-04-21T02:44:13.895Z,15.57
2023-04-21T02:49:20.051Z,15.71
2023-04-21T02:54:25.860Z,15.92
2023-04-21T02:59:32.077Z,16.14
2023-04-21T03:04:39.122Z,16.34
2023-04-21T03:09:44.780Z,16.52
2023-04-21T03:14:50.523Z,16.63
2023-04-21T03:19:55.979Z,16.70
2023-04-21T03:25:02.327Z,16.81
2023-04-21T03:30:09.388Z,17.13
2023-04-21T03:35:14.828Z,17.37
2023-04-21T03:40:21.565Z,17.39
2023-04-21T03:45:27.744Z,17.38
2023-04-21T03:50:33.301Z,17.45
2023-04-21T03:55:39.446Z,17.57
2023-04-21T04:00:45.818Z,17.75
2023-04-21T04:05:51.725Z,17.98
2023-04-21T04:10:59.048Z,18.03
2023-04-21T04:16:04.685Z,18.16
2023-04-21T04:21:10.617Z,18.26
2023-04-21T04:26:16.153Z,18.39
2023-04-21T04:31:23.128Z,18.45
2023-04-21T04:36:29.812Z,18.53
2023-04-21T04:41:35.616Z,18.66
2023-04-21T04:46:42.967Z,18.68
2023-04-21T04:51:48.865Z,18.80
2023-04-21T04:56:54.794Z,18.88
2023-04-21T05:02:00.436Z,19.05
2023-04-21T05:07:07.567Z,19.19
2023-04-21T05:12:13.688Z,19.12
2023-04-21T05:17:19.422Z,19.02
2023-04-21T05:22:25.233Z,19.05
2023-04-21T05:27:31.312Z,19.19
2023-04-21T05:32:37.776Z,19.17
2023-04-21T05:37:43.201Z,18.94
2023-04-21T05:42:49.585Z,19.03
2023-04-21T05:47:55.224Z,19.01
2023-04-21T05:53:00.642Z,19.15
2023-04-21T05:58:06.704Z,19.21
2023-04-21T06:03:12.244Z,19.23
2023-04-21T06:08:17.918Z,19.24
2023-04-21T06:13:23.247Z,19.39
2023-04-21T06:18:31.257Z,19.43
2023-04-21T06:23:37.738Z,19.57
2023-04-21T06:28:43.509Z,19.67
2023-04-21T06:33:49.580Z,19.53
2023-04-21T06:38:54.952Z,19.58
2023-04-21T06:44:00.790Z,19.63
2023-04-21T06:49:07.210Z,19.63
2023-04-21T06:54:12.879Z,19.65
2023-04-21T06:59:18.592Z,19.68
2023-04-21T07:04:24.308Z,19.66
2023-04-21T07:09:30.304Z,19.48
2023-04-21T07:14:35.833Z,19.33
2023-04-21T07:19:41.008Z,19.24
2023-04-21T07:24:47.612Z,19.04
2023-04-21T07:29:54.393Z,18.96
2023-04-21T07:35:00.222Z,18.88
2023-04-21T07:40:06.286Z,18.83
2023-04-21T07:45:12.266Z,18.80
2023-04-21T07:50:18.047Z,18.92
2023-04-21T07:55:22.866Z,19.04
2023-04-21T08:00:28.404Z,19.00
2023-04-21T08:05:35.860Z,19.09
2023-04-21T08:10:44.493Z,19.08
2023-04-21T08:15:51.131Z,19.04
2023-04-21T08:20:59.177Z,18.95
2023-04-21T08:26:05.428Z,18.78
2023-04-21T08:31:12.114Z,18.67
2023-04-21T08:36:26.383Z,18.56
2023-04-21T08:41:34.356Z,18.43
2023-04-21T08:46:41.077Z,18.27
2023-04-21T08:51:46.927Z,18.09
2023-04-21T08:56:55.215Z,17.97
2023-04-21T09:02:11.239Z,17.87
2023-04-21T09:07:38.733Z,17.81
2023-04-21T09:12:44.286Z,17.69
2023-04-21T09:17:49.914Z,17.51
2023-04-21T09:22:57.675Z,17.31
2023-04-21T09:28:03.743Z,17.13
2023-04-21T09:33:20.075Z,17.02
2023-04-21T09:38:30.175Z,16.80
2023-04-21T09:43:36.078Z,16.77
2023-04-21T09:48:46.556Z,16.60
2023-04-21T09:53:55.497Z,16.42
2023-04-21T09:59:07.524Z,16.23
2023-04-21T10:04:13.867Z,16.00
2023-04-21T10:09:23.400Z,15.88
2023-04-21T10:14:29.024Z,15.67
2023-04-21T10:19:37.588Z,15.51
2023-04-21T10:24:44.617Z,15.32
2023-04-21T10:35:00.856Z,15.09
2023-04-21T10:40:12.398Z,14.91
2023-04-21T10:45:17.844Z,14.84
2023-04-21T10:50:29.025Z,14.68
2023-04-21T10:55:34.819Z,14.55
2023-04-21T11:00:40.666Z,14.44
2023-04-21T11:05:46.254Z,14.30
2023-04-21T11:10:58.479Z,14.21
2023-04-21T11:16:11.265Z,14.07
2023-04-21T11:21:19.449Z,14.01
2023-04-21T11:26:43.942Z,13.90
2023-04-21T11:31:52.110Z,13.82
2023-04-21T11:36:57.963Z,13.76
2023-04-21T11:42:06.852Z,13.75
2023-04-21T11:47:19.690Z,13.76
2023-04-21T11:52:26.001Z,13.77
2023-04-21T11:57:33.860Z,13.73
2023-04-21T12:02:41.207Z,13.67
2023-04-21T12:07:54.411Z,13.64
2023-04-21T12:13:00.757Z,13.59
2023-04-21T12:18:15.135Z,13.49
2023-04-21T12:23:21.508Z,13.42
2023-04-21T12:28:27.451Z,13.31
2023-04-21T12:33:32.950Z,13.19
2023-04-21T12:38:38.725Z,13.10
2023-04-21T12:43:44.317Z,13.03
2023-04-21T12:48:50.472Z,12.99
2023-04-21T12:53:56.195Z,12.96
2023-04-21T12:59:01.964Z,12.95
2023-04-21T13:04:08.199Z,12.87
2023-04-21T13:09:14.047Z,12.83
2023-04-21T13:14:19.554Z,12.79
2023-04-21T13:19:25.178Z,12.72
2023-04-21T13:24:31.900Z,12.68
2023-04-21T13:29:38.420Z,12.64
2023-04-21T13:34:44.865Z,12.59
2023-04-21T13:39:50.559Z,12.61
2023-04-21T13:44:57.354Z,12.54
2023-04-21T13:50:03.292Z,12.48
2023-04-21T13:55:09.846Z,12.40
2023-04-21T14:00:16.546Z,12.29
2023-04-21T14:05:22.162Z,12.26
2023-04-21T14:10:27.722Z,12.19
2023-04-21T14:15:32.772Z,12.11
2023-04-21T14:20:39.333Z,12.04
2023-04-21T14:25:45.946Z,12.01
2023-04-21T14:30:55.558Z,12.02
2023-04-21T14:36:02.132Z,11.99
2023-04-21T14:41:07.845Z,11.91
2023-04-21T14:46:13.873Z,11.91
2023-04-21T14:51:20.294Z,11.86
2023-04-21T14:56:25.985Z,11.82
2023-04-21T15:01:32.803Z,11.81
2023-04-21T15:06:38.717Z,11.75
2023-04-21T15:11:45.145Z,11.71
2023-04-21T15:16:50.704Z,11.70
2023-04-21T15:21:57.797Z,11.70
2023-04-21T15:27:03.967Z,11.60
2023-04-21T15:32:10.683Z,11.51
2023-04-21T15:37:19.054Z,11.45
2023-04-21T15:42:25.149Z,11.39
2023-04-21T15:47:30.816Z,11.38
2023-04-21T15:52:40.607Z,11.34
2023-04-21T15:57:48.365Z,11.34
2023-04-21T16:02:57.085Z,11.34
2023-04-21T16:08:02.764Z,11.46
2023-04-21T16:13:09.321Z,11.49
2023-04-21T16:18:16.362Z,11.50
2023-04-21T16:23:24.802Z,11.46
2023-04-21T16:28:31.441Z,11.41
2023-04-21T16:33:37.645Z,11.34
2023-04-21T16:38:43.462Z,11.30
2023-04-21T16:43:49.689Z,11.23
2023-04-21T16:48:55.704Z,11.19
2023-04-21T16:54:01.309Z,11.17
2023-04-21T16:59:09.074Z,11.12
2023-04-21T17:04:17.156Z,11.04
2023-04-21T17:09:22.932Z,11.02
2023-04-21T17:14:27.513Z,10.98
2023-04-21T17:19:33.223Z,10.97
2023-04-21T17:24:51.982Z,10.97
2023-04-21T17:29:59.235Z,10.86
2023-04-21T17:35:06.977Z,10.83
2023-04-21T17:40:13.276Z,10.84
2023-04-21T17:45:19.049Z,10.78
2023-04-21T17:50:28.517Z,10.77
2023-04-21T17:55:34.891Z,10.75
2023-04-21T18:00:41.665Z,10.71
2023-04-21T18:05:47.378Z,10.74
2023-04-21T18:10:54.533Z,10.68
2023-04-21T18:16:02.131Z,10.65
2023-04-21T18:21:07.748Z,10.67
2023-04-21T18:26:13.422Z,10.63
2023-04-21T18:31:20.369Z,10.59
2023-04-21T18:36:26.606Z,10.64
2023-04-21T18:41:32.144Z,10.56
2023-04-21T18:46:37.645Z,10.58
2023-04-21T18:51:43.371Z,10.60
2023-04-21T18:56:48.970Z,10.59
2023-04-21T19:01:55.799Z,10.58
2023-04-21T19:07:00.731Z,10.63
2023-04-21T19:12:06.740Z,10.64
2023-04-21T19:17:12.603Z,10.61
2023-04-21T19:22:19.249Z,10.59
2023-04-21T19:27:25.221Z,10.54
2023-04-21T19:32:31.143Z,10.53
2023-04-21T19:37:37.592Z,10.53
2023-04-21T19:42:42.969Z,10.51
2023-04-21T19:47:49.070Z,10.49
2023-04-21T19:52:54.691Z,10.48
2023-04-21T19:58:00.485Z,10.48
2023-04-21T20:03:09.335Z,10.46
2023-04-21T20:08:15.108Z,10.41
2023-04-21T20:13:20.888Z,10.38
2023-04-21T20:18:26.557Z,10.35
2023-04-21T20:23:32.684Z,10.31
2023-04-21T20:28:38.147Z,10.29
2023-04-21T20:33:43.558Z,10.27
2023-04-21T20:38:50.608Z,10.26
2023-04-21T20:43:57.687Z,10.23
2023-04-21T20:49:03.362Z,10.22
2023-04-21T20:54:09.534Z,10.20
2023-04-21T20:59:15.915Z,10.16
2023-04-21T21:04:21.451Z,10.17
2023-04-21T21:09:27.293Z,10.18
2023-04-21T21:14:32.811Z,10.17
2023-04-21T21:19:38.510Z,10.13
2023-04-21T21:24:44.763Z,10.07
2023-04-21T21:29:50.706Z,10.09
2023-04-21T21:34:56.444Z,10.02
2023-04-21T21:40:02.316Z,9.96
2023-04-21T21:45:10.214Z,9.91
2023-04-21T21:50:15.895Z,9.87
2023-04-21T21:55:21.516Z,9.83
2023-04-21T22:00:27.821Z,9.84
2023-04-21T22:05:33.293Z,9.83
2023-04-21T22:10:38.709Z,9.83
2023-04-21T22:15:46.195Z,9.79
2023-04-21T22:20:51.879Z,9.76
2023-04-21T22:25:58.280Z,9.77
2023-04-21T22:31:05.043Z,9.79
2023-04-21T22:36:10.838Z,9.80
2023-04-21T22:41:17.258Z,9.82
2023-04-21T22:46:22.737Z,9.82
2023-04-21T22:51:29.187Z,9.82
2023-04-21T22:56:34.710Z,9.82
2023-04-21T23:01:41.316Z,9.79
2023-04-21T23:06:46.900Z,9.82
2023-04-21T23:11:52.589Z,9.83
2023-04-21T23:16:58.035Z,9.85
2023-04-21T23:22:03.728Z,9.85
2023-04-21T23:27:11.528Z,9.85
2023-04-21T23:32:17.328Z,9.83
2023-04-21T23:37:22.751Z,9.84
2023-04-21T23:42:28.404Z,9.85
2023-04-21T23:47:35.198Z,9.84
2023-04-21T23:52:43.359Z,9.89
2023-04-21T23:57:48.980Z,9.92
